< Typhoon 198517 1985 Season Typhoon 198519 >
Typhoon 198518 (WINONA)
General InformationDetailed Track InformationTrack Information on Google MapsList of All Images || Disaster Info.ResourceGoogle EarthGE AnimationAtom FeedGeoJSON
Detalied Best Track Wind (Time Zone = UTC)
Year Month Day Hour Lat. Long. Wind (kt) Gust (kt) Direc. of Major Storm Axis Radius of Major Storm Axis (nm) Radius of Minor Storm Axis (nm) Direc. of Major Gale Axis Radius of Major Gale Axis (nm) Radius of Minor Gale Axis (nm) Image
1985 9 18 18 15.8 115.5 0 0 - - - - - - Image
1985 9 19 00 16.0 115.0 0 0 - - - - - - Image
1985 9 19 06 16.3 114.5 0 0 - - - - - - Image
1985 9 19 12 16.7 114.0 0 0 - - - - - - Image
1985 9 19 18 17.0 113.5 0 0 - - - - - - Image
1985 9 20 00 17.3 112.8 0 0 - - - - - - Image
1985 9 20 06 17.8 112.3 0 0 - - - - - - Image
1985 9 20 12 18.2 111.9 35 0 - - - symmetric 75 75 Image
1985 9 20 18 18.7 111.8 40 0 - - - NE 125 75 Image
1985 9 21 00 19.3 111.7 45 0 - - - NE 125 75 Image
1985 9 21 06 19.9 111.6 45 0 - - - NE 125 75 Image
1985 9 21 12 20.5 111.4 45 0 - - - NE 125 75 Image
1985 9 21 18 20.9 111.0 45 0 - - - E 100 75 Image
1985 9 22 00 21.3 110.4 40 0 - - - symmetric 75 75 Image
1985 9 22 06 21.7 110.0 0 0 - - - - - - Image
1985 9 22 12 22.1 109.9 0 0 - - - - - - Image
1985 9 22 18 22.5 110.0 0 0 - - - - - - Image
1985 9 23 00 22.8 110.5 0 0 - - - - - - Image
1985 9 23 06 23.1 111.7 0 0 - - - - - - Image
1985 9 23 12 23.7 113.2 0 0 - - - - - - Image
1985 9 23 18 24.2 114.7 0 0 - - - - - - Image
1985 9 24 00 24.7 116.5 0 0 - - - - - - Image
Japan Meteorological Agency Best Track Data | Correction Date : 1992-10-21
< Typhoon 198517 1985 Season Typhoon 198519 >

Help